sensor_id;sensor_type;location;lat;lon;timestamp;P1;durP1;ratioP1;P2;durP2;ratioP2
14015;SDS011;7083;48.854;9.158;2023-07-28T00:02:00;3.53;;;3.33;;
14015;SDS011;7083;48.854;9.158;2023-07-28T00:04:28;3.77;;;3.53;;
14015;SDS011;7083;48.854;9.158;2023-07-28T00:06:55;3.80;;;3.60;;
14015;SDS011;7083;48.854;9.158;2023-07-28T00:09:22;3.47;;;3.27;;
14015;SDS011;7083;48.854;9.158;2023-07-28T00:11:48;4.37;;;4.17;;
14015;SDS011;7083;48.854;9.158;2023-07-28T00:14:15;3.93;;;3.73;;
14015;SDS011;7083;48.854;9.158;2023-07-28T00:16:42;4.13;;;3.77;;
14015;SDS011;7083;48.854;9.158;2023-07-28T00:19:08;3.90;;;3.70;;
14015;SDS011;7083;48.854;9.158;2023-07-28T00:21:36;4.43;;;4.07;;
14015;SDS011;7083;48.854;9.158;2023-07-28T00:24:04;3.77;;;3.57;;
14015;SDS011;7083;48.854;9.158;2023-07-28T00:26:31;4.20;;;4.00;;
14015;SDS011;7083;48.854;9.158;2023-07-28T00:28:57;3.83;;;3.63;;
14015;SDS011;7083;48.854;9.158;2023-07-28T00:31:24;3.30;;;3.10;;
14015;SDS011;7083;48.854;9.158;2023-07-28T00:33:51;3.93;;;3.73;;
14015;SDS011;7083;48.854;9.158;2023-07-28T00:36:17;3.63;;;3.43;;
14015;SDS011;7083;48.854;9.158;2023-07-28T00:38:45;3.40;;;3.20;;
14015;SDS011;7083;48.854;9.158;2023-07-28T00:41:12;3.20;;;3.00;;
14015;SDS011;7083;48.854;9.158;2023-07-28T00:43:39;3.40;;;3.20;;
14015;SDS011;7083;48.854;9.158;2023-07-28T00:46:06;3.30;;;3.20;;
14015;SDS011;7083;48.854;9.158;2023-07-28T00:48:33;3.67;;;3.30;;
14015;SDS011;7083;48.854;9.158;2023-07-28T00:51:00;4.20;;;3.90;;
14015;SDS011;7083;48.854;9.158;2023-07-28T00:53:26;3.40;;;3.17;;
14015;SDS011;7083;48.854;9.158;2023-07-28T00:55:56;4.33;;;4.03;;
14015;SDS011;7083;48.854;9.158;2023-07-28T00:58:23;3.30;;;3.10;;
14015;SDS011;7083;48.854;9.158;2023-07-28T01:00:50;3.30;;;3.20;;
14015;SDS011;7083;48.854;9.158;2023-07-28T01:03:17;3.80;;;3.50;;
14015;SDS011;7083;48.854;9.158;2023-07-28T01:05:48;3.50;;;3.30;;
14015;SDS011;7083;48.854;9.158;2023-07-28T01:08:23;3.63;;;3.33;;
14015;SDS011;7083;48.854;9.158;2023-07-28T01:10:54;3.47;;;3.27;;
14015;SDS011;7083;48.854;9.158;2023-07-28T01:13:22;3.23;;;3.03;;
14015;SDS011;7083;48.854;9.158;2023-07-28T01:15:49;3.30;;;3.10;;
14015;SDS011;7083;48.854;9.158;2023-07-28T01:18:15;3.00;;;2.90;;
14015;SDS011;7083;48.854;9.158;2023-07-28T01:20:42;3.80;;;3.60;;
14015;SDS011;7083;48.854;9.158;2023-07-28T01:23:14;3.47;;;3.27;;
14015;SDS011;7083;48.854;9.158;2023-07-28T01:25:49;3.43;;;3.23;;
14015;SDS011;7083;48.854;9.158;2023-07-28T01:28:22;3.73;;;3.53;;
14015;SDS011;7083;48.854;9.158;2023-07-28T01:30:49;4.20;;;3.90;;
14015;SDS011;7083;48.854;9.158;2023-07-28T01:33:16;3.70;;;3.50;;
14015;SDS011;7083;48.854;9.158;2023-07-28T01:35:43;3.80;;;3.50;;
14015;SDS011;7083;48.854;9.158;2023-07-28T01:38:09;4.10;;;3.87;;
14015;SDS011;7083;48.854;9.158;2023-07-28T01:40:37;3.73;;;3.53;;
14015;SDS011;7083;48.854;9.158;2023-07-28T01:43:03;3.87;;;3.67;;
14015;SDS011;7083;48.854;9.158;2023-07-28T01:45:31;4.33;;;4.03;;
14015;SDS011;7083;48.854;9.158;2023-07-28T01:47:58;3.60;;;3.40;;
14015;SDS011;7083;48.854;9.158;2023-07-28T01:50:25;6.30;;;5.80;;
14015;SDS011;7083;48.854;9.158;2023-07-28T01:52:51;4.93;;;4.60;;
14015;SDS011;7083;48.854;9.158;2023-07-28T01:55:18;4.00;;;3.70;;
14015;SDS011;7083;48.854;9.158;2023-07-28T01:57:50;4.20;;;4.00;;
14015;SDS011;7083;48.854;9.158;2023-07-28T02:00:19;4.20;;;3.90;;
14015;SDS011;7083;48.854;9.158;2023-07-28T02:02:48;4.07;;;3.70;;
14015;SDS011;7083;48.854;9.158;2023-07-28T02:05:15;3.80;;;3.60;;
14015;SDS011;7083;48.854;9.158;2023-07-28T02:07:41;4.57;;;4.07;;
14015;SDS011;7083;48.854;9.158;2023-07-28T02:10:09;4.30;;;4.00;;
14015;SDS011;7083;48.854;9.158;2023-07-28T02:12:36;4.57;;;4.27;;
14015;SDS011;7083;48.854;9.158;2023-07-28T02:15:03;4.47;;;4.17;;
14015;SDS011;7083;48.854;9.158;2023-07-28T02:17:30;4.90;;;3.90;;
14015;SDS011;7083;48.854;9.158;2023-07-28T02:19:58;4.63;;;4.33;;
14015;SDS011;7083;48.854;9.158;2023-07-28T02:22:26;6.77;;;3.80;;
14015;SDS011;7083;48.854;9.158;2023-07-28T02:24:53;4.23;;;4.03;;
14015;SDS011;7083;48.854;9.158;2023-07-28T02:27:19;4.17;;;3.90;;
14015;SDS011;7083;48.854;9.158;2023-07-28T02:29:46;4.40;;;4.20;;
14015;SDS011;7083;48.854;9.158;2023-07-28T02:32:13;4.63;;;4.43;;
14015;SDS011;7083;48.854;9.158;2023-07-28T02:34:39;4.67;;;4.37;;
14015;SDS011;7083;48.854;9.158;2023-07-28T02:37:07;4.27;;;3.83;;
14015;SDS011;7083;48.854;9.158;2023-07-28T02:39:34;3.97;;;3.77;;
14015;SDS011;7083;48.854;9.158;2023-07-28T02:42:00;3.87;;;3.67;;
14015;SDS011;7083;48.854;9.158;2023-07-28T02:44:27;3.80;;;3.53;;
14015;SDS011;7083;48.854;9.158;2023-07-28T02:46:54;4.43;;;4.07;;
14015;SDS011;7083;48.854;9.158;2023-07-28T02:49:20;4.50;;;4.20;;
14015;SDS011;7083;48.854;9.158;2023-07-28T02:51:47;4.20;;;4.00;;
14015;SDS011;7083;48.854;9.158;2023-07-28T02:54:15;4.07;;;3.77;;
14015;SDS011;7083;48.854;9.158;2023-07-28T02:56:42;3.70;;;3.50;;
14015;SDS011;7083;48.854;9.158;2023-07-28T02:59:09;5.53;;;3.70;;
14015;SDS011;7083;48.854;9.158;2023-07-28T03:01:36;3.80;;;3.57;;
14015;SDS011;7083;48.854;9.158;2023-07-28T03:04:02;3.57;;;3.37;;
14015;SDS011;7083;48.854;9.158;2023-07-28T03:06:29;3.80;;;3.60;;
14015;SDS011;7083;48.854;9.158;2023-07-28T03:08:57;3.97;;;3.77;;
14015;SDS011;7083;48.854;9.158;2023-07-28T03:11:26;4.00;;;3.70;;
14015;SDS011;7083;48.854;9.158;2023-07-28T03:13:52;3.87;;;3.57;;
14015;SDS011;7083;48.854;9.158;2023-07-28T03:16:19;3.13;;;2.93;;
14015;SDS011;7083;48.854;9.158;2023-07-28T03:18:46;3.67;;;3.47;;
14015;SDS011;7083;48.854;9.158;2023-07-28T03:21:12;4.13;;;3.83;;
14015;SDS011;7083;48.854;9.158;2023-07-28T03:23:40;3.13;;;3.03;;
14015;SDS011;7083;48.854;9.158;2023-07-28T03:26:07;3.57;;;3.37;;
14015;SDS011;7083;48.854;9.158;2023-07-28T03:28:35;3.30;;;3.10;;
14015;SDS011;7083;48.854;9.158;2023-07-28T03:31:01;3.57;;;3.37;;
14015;SDS011;7083;48.854;9.158;2023-07-28T03:33:28;3.50;;;3.30;;
14015;SDS011;7083;48.854;9.158;2023-07-28T03:35:55;3.27;;;3.10;;
14015;SDS011;7083;48.854;9.158;2023-07-28T03:38:21;3.10;;;2.90;;
14015;SDS011;7083;48.854;9.158;2023-07-28T03:40:49;3.37;;;3.20;;
14015;SDS011;7083;48.854;9.158;2023-07-28T03:43:16;3.67;;;3.37;;
14015;SDS011;7083;48.854;9.158;2023-07-28T03:45:44;3.37;;;3.17;;
14015;SDS011;7083;48.854;9.158;2023-07-28T03:48:10;3.27;;;3.07;;
14015;SDS011;7083;48.854;9.158;2023-07-28T03:50:37;3.57;;;2.97;;
14015;SDS011;7083;48.854;9.158;2023-07-28T03:53:04;2.93;;;2.73;;
14015;SDS011;7083;48.854;9.158;2023-07-28T03:55:30;3.00;;;2.80;;
14015;SDS011;7083;48.854;9.158;2023-07-28T03:57:57;3.30;;;3.10;;
14015;SDS011;7083;48.854;9.158;2023-07-28T04:00:23;3.77;;;3.50;;
14015;SDS011;7083;48.854;9.158;2023-07-28T04:02:51;3.57;;;3.37;;
14015;SDS011;7083;48.854;9.158;2023-07-28T04:05:18;3.37;;;3.17;;
14015;SDS011;7083;48.854;9.158;2023-07-28T04:07:45;3.43;;;3.20;;
14015;SDS011;7083;48.854;9.158;2023-07-28T04:10:11;3.50;;;3.30;;
14015;SDS011;7083;48.854;9.158;2023-07-28T04:12:38;3.37;;;3.07;;
14015;SDS011;7083;48.854;9.158;2023-07-28T04:15:05;3.33;;;3.13;;
14015;SDS011;7083;48.854;9.158;2023-07-28T04:17:33;3.30;;;3.13;;
14015;SDS011;7083;48.854;9.158;2023-07-28T04:20:01;3.43;;;3.23;;
14015;SDS011;7083;48.854;9.158;2023-07-28T04:22:27;3.10;;;3.00;;
14015;SDS011;7083;48.854;9.158;2023-07-28T04:24:54;3.03;;;2.83;;
14015;SDS011;7083;48.854;9.158;2023-07-28T04:27:21;3.17;;;2.97;;
14015;SDS011;7083;48.854;9.158;2023-07-28T04:29:47;3.23;;;3.13;;
14015;SDS011;7083;48.854;9.158;2023-07-28T04:32:14;3.03;;;2.93;;
14015;SDS011;7083;48.854;9.158;2023-07-28T04:34:41;3.20;;;3.00;;
14015;SDS011;7083;48.854;9.158;2023-07-28T04:37:09;4.17;;;3.70;;
14015;SDS011;7083;48.854;9.158;2023-07-28T04:39:35;3.40;;;3.20;;
14015;SDS011;7083;48.854;9.158;2023-07-28T04:42:02;3.30;;;3.10;;
14015;SDS011;7083;48.854;9.158;2023-07-28T04:44:29;2.90;;;2.80;;
14015;SDS011;7083;48.854;9.158;2023-07-28T04:46:55;3.60;;;3.40;;
14015;SDS011;7083;48.854;9.158;2023-07-28T04:49:22;3.70;;;3.40;;
14015;SDS011;7083;48.854;9.158;2023-07-28T04:51:49;4.00;;;3.73;;
14015;SDS011;7083;48.854;9.158;2023-07-28T04:54:17;4.50;;;3.37;;
14015;SDS011;7083;48.854;9.158;2023-07-28T04:56:43;4.07;;;3.37;;
14015;SDS011;7083;48.854;9.158;2023-07-28T04:59:11;3.83;;;3.63;;
14015;SDS011;7083;48.854;9.158;2023-07-28T05:01:37;3.73;;;3.53;;
14015;SDS011;7083;48.854;9.158;2023-07-28T05:04:04;3.90;;;3.70;;
14015;SDS011;7083;48.854;9.158;2023-07-28T05:06:30;3.97;;;3.77;;
14015;SDS011;7083;48.854;9.158;2023-07-28T05:08:57;3.80;;;3.60;;
14015;SDS011;7083;48.854;9.158;2023-07-28T05:11:25;3.80;;;3.50;;
14015;SDS011;7083;48.854;9.158;2023-07-28T05:13:52;3.80;;;3.60;;
14015;SDS011;7083;48.854;9.158;2023-07-28T05:16:18;4.53;;;3.30;;
14015;SDS011;7083;48.854;9.158;2023-07-28T05:18:45;4.70;;;4.40;;
14015;SDS011;7083;48.854;9.158;2023-07-28T05:21:12;4.63;;;4.33;;
14015;SDS011;7083;48.854;9.158;2023-07-28T05:23:38;3.97;;;3.73;;
14015;SDS011;7083;48.854;9.158;2023-07-28T05:26:05;4.73;;;4.43;;
14015;SDS011;7083;48.854;9.158;2023-07-28T05:28:33;4.47;;;4.07;;
14015;SDS011;7083;48.854;9.158;2023-07-28T05:31:03;4.90;;;4.50;;
14015;SDS011;7083;48.854;9.158;2023-07-28T05:33:30;4.30;;;4.10;;
14015;SDS011;7083;48.854;9.158;2023-07-28T05:36:00;4.30;;;4.00;;
14015;SDS011;7083;48.854;9.158;2023-07-28T05:38:27;4.77;;;4.47;;
14015;SDS011;7083;48.854;9.158;2023-07-28T05:40:57;4.27;;;4.07;;
14015;SDS011;7083;48.854;9.158;2023-07-28T05:43:25;6.83;;;4.40;;
14015;SDS011;7083;48.854;9.158;2023-07-28T05:45:53;5.57;;;5.07;;
14015;SDS011;7083;48.854;9.158;2023-07-28T05:48:20;5.20;;;4.90;;
14015;SDS011;7083;48.854;9.158;2023-07-28T05:50:47;4.23;;;3.93;;
14015;SDS011;7083;48.854;9.158;2023-07-28T05:53:14;4.47;;;4.17;;
14015;SDS011;7083;48.854;9.158;2023-07-28T05:55:41;5.40;;;5.00;;
14015;SDS011;7083;48.854;9.158;2023-07-28T05:58:09;5.00;;;4.60;;
14015;SDS011;7083;48.854;9.158;2023-07-28T06:00:38;5.70;;;5.20;;
14015;SDS011;7083;48.854;9.158;2023-07-28T06:03:06;5.07;;;4.67;;
14015;SDS011;7083;48.854;9.158;2023-07-28T06:05:33;4.60;;;4.30;;
14015;SDS011;7083;48.854;9.158;2023-07-28T06:08:00;5.03;;;4.53;;
14015;SDS011;7083;48.854;9.158;2023-07-28T06:10:27;3.97;;;3.77;;
14015;SDS011;7083;48.854;9.158;2023-07-28T06:12:53;5.30;;;4.87;;
14015;SDS011;7083;48.854;9.158;2023-07-28T06:15:20;4.67;;;4.37;;
14015;SDS011;7083;48.854;9.158;2023-07-28T06:17:47;4.80;;;4.47;;
14015;SDS011;7083;48.854;9.158;2023-07-28T06:20:15;10.30;;;9.43;;
14015;SDS011;7083;48.854;9.158;2023-07-28T06:22:41;6.57;;;5.97;;
14015;SDS011;7083;48.854;9.158;2023-07-28T06:25:08;5.30;;;4.97;;
14015;SDS011;7083;48.854;9.158;2023-07-28T06:27:35;5.33;;;4.97;;
14015;SDS011;7083;48.854;9.158;2023-07-28T06:30:03;5.43;;;4.93;;
14015;SDS011;7083;48.854;9.158;2023-07-28T06:32:31;5.43;;;4.97;;
14015;SDS011;7083;48.854;9.158;2023-07-28T06:34:58;5.93;;;4.83;;
14015;SDS011;7083;48.854;9.158;2023-07-28T06:37:26;5.70;;;5.20;;
14015;SDS011;7083;48.854;9.158;2023-07-28T06:39:52;9.23;;;5.30;;
14015;SDS011;7083;48.854;9.158;2023-07-28T06:42:20;5.90;;;5.00;;
14015;SDS011;7083;48.854;9.158;2023-07-28T06:44:49;7.83;;;5.90;;
14015;SDS011;7083;48.854;9.158;2023-07-28T06:47:16;5.17;;;4.73;;
14015;SDS011;7083;48.854;9.158;2023-07-28T06:49:42;10.03;;;5.50;;
14015;SDS011;7083;48.854;9.158;2023-07-28T06:52:09;5.10;;;4.77;;
14015;SDS011;7083;48.854;9.158;2023-07-28T06:54:37;5.60;;;4.53;;
14015;SDS011;7083;48.854;9.158;2023-07-28T06:57:05;5.50;;;5.17;;
14015;SDS011;7083;48.854;9.158;2023-07-28T06:59:32;4.27;;;3.97;;
14015;SDS011;7083;48.854;9.158;2023-07-28T07:01:59;4.70;;;4.40;;
14015;SDS011;7083;48.854;9.158;2023-07-28T07:04:26;5.73;;;5.20;;
14015;SDS011;7083;48.854;9.158;2023-07-28T07:06:52;5.03;;;4.73;;
14015;SDS011;7083;48.854;9.158;2023-07-28T07:09:19;4.10;;;3.90;;
14015;SDS011;7083;48.854;9.158;2023-07-28T07:11:47;5.37;;;4.27;;
14015;SDS011;7083;48.854;9.158;2023-07-28T07:14:13;7.97;;;5.20;;
14015;SDS011;7083;48.854;9.158;2023-07-28T07:16:40;4.33;;;4.03;;
14015;SDS011;7083;48.854;9.158;2023-07-28T07:19:07;4.67;;;4.27;;
14015;SDS011;7083;48.854;9.158;2023-07-28T07:21:34;3.70;;;3.40;;
14015;SDS011;7083;48.854;9.158;2023-07-28T07:24:02;4.23;;;4.03;;
14015;SDS011;7083;48.854;9.158;2023-07-28T07:26:29;5.50;;;3.97;;
14015;SDS011;7083;48.854;9.158;2023-07-28T07:28:57;4.33;;;3.93;;
14015;SDS011;7083;48.854;9.158;2023-07-28T07:31:24;5.10;;;4.70;;
14015;SDS011;7083;48.854;9.158;2023-07-28T07:33:51;4.20;;;3.90;;
14015;SDS011;7083;48.854;9.158;2023-07-28T07:36:18;4.73;;;4.33;;
14015;SDS011;7083;48.854;9.158;2023-07-28T07:38:45;3.77;;;3.57;;
14015;SDS011;7083;48.854;9.158;2023-07-28T07:41:12;4.20;;;4.00;;
14015;SDS011;7083;48.854;9.158;2023-07-28T07:43:41;5.30;;;4.07;;
14015;SDS011;7083;48.854;9.158;2023-07-28T07:46:09;4.47;;;3.83;;
14015;SDS011;7083;48.854;9.158;2023-07-28T07:48:36;4.30;;;4.00;;
14015;SDS011;7083;48.854;9.158;2023-07-28T07:51:02;4.03;;;3.77;;
14015;SDS011;7083;48.854;9.158;2023-07-28T07:53:29;4.60;;;4.30;;
14015;SDS011;7083;48.854;9.158;2023-07-28T07:55:56;3.63;;;3.43;;
14015;SDS011;7083;48.854;9.158;2023-07-28T07:58:23;3.90;;;3.60;;
14015;SDS011;7083;48.854;9.158;2023-07-28T08:00:49;3.80;;;3.53;;
14015;SDS011;7083;48.854;9.158;2023-07-28T08:03:17;3.83;;;3.53;;
14015;SDS011;7083;48.854;9.158;2023-07-28T08:05:44;5.20;;;3.03;;
14015;SDS011;7083;48.854;9.158;2023-07-28T08:08:11;3.20;;;3.07;;
14015;SDS011;7083;48.854;9.158;2023-07-28T08:10:40;3.40;;;3.20;;
14015;SDS011;7083;48.854;9.158;2023-07-28T08:13:07;3.20;;;3.00;;
14015;SDS011;7083;48.854;9.158;2023-07-28T08:15:33;3.10;;;2.90;;
14015;SDS011;7083;48.854;9.158;2023-07-28T08:18:00;2.97;;;2.73;;
14015;SDS011;7083;48.854;9.158;2023-07-28T08:20:28;4.90;;;3.30;;
14015;SDS011;7083;48.854;9.158;2023-07-28T08:22:55;3.20;;;3.10;;
14015;SDS011;7083;48.854;9.158;2023-07-28T08:25:21;2.80;;;2.70;;
14015;SDS011;7083;48.854;9.158;2023-07-28T08:27:49;3.50;;;3.30;;
14015;SDS011;7083;48.854;9.158;2023-07-28T08:30:15;3.17;;;2.97;;
14015;SDS011;7083;48.854;9.158;2023-07-28T08:32:42;3.77;;;3.47;;
14015;SDS011;7083;48.854;9.158;2023-07-28T08:35:09;6.20;;;4.73;;
14015;SDS011;7083;48.854;9.158;2023-07-28T08:37:37;3.40;;;3.20;;
14015;SDS011;7083;48.854;9.158;2023-07-28T08:40:04;3.83;;;3.53;;
14015;SDS011;7083;48.854;9.158;2023-07-28T08:42:35;2.90;;;2.80;;
14015;SDS011;7083;48.854;9.158;2023-07-28T08:45:03;3.40;;;3.10;;
14015;SDS011;7083;48.854;9.158;2023-07-28T08:47:31;3.30;;;3.10;;
14015;SDS011;7083;48.854;9.158;2023-07-28T08:49:57;2.77;;;2.67;;
14015;SDS011;7083;48.854;9.158;2023-07-28T08:52:24;3.07;;;2.87;;
14015;SDS011;7083;48.854;9.158;2023-07-28T08:54:52;2.27;;;2.17;;
14015;SDS011;7083;48.854;9.158;2023-07-28T08:57:19;2.43;;;2.33;;
14015;SDS011;7083;48.854;9.158;2023-07-28T08:59:46;1.93;;;1.87;;
14015;SDS011;7083;48.854;9.158;2023-07-28T09:02:14;2.17;;;2.07;;
14015;SDS011;7083;48.854;9.158;2023-07-28T09:04:42;2.50;;;2.30;;
14015;SDS011;7083;48.854;9.158;2023-07-28T09:07:09;2.27;;;2.20;;
14015;SDS011;7083;48.854;9.158;2023-07-28T09:09:36;2.80;;;2.60;;
14015;SDS011;7083;48.854;9.158;2023-07-28T09:12:04;3.70;;;3.50;;
14015;SDS011;7083;48.854;9.158;2023-07-28T09:14:34;4.70;;;3.90;;
14015;SDS011;7083;48.854;9.158;2023-07-28T09:17:08;4.37;;;4.07;;
14015;SDS011;7083;48.854;9.158;2023-07-28T09:19:48;6.60;;;6.10;;
14015;SDS011;7083;48.854;9.158;2023-07-28T09:22:16;4.90;;;4.60;;
14015;SDS011;7083;48.854;9.158;2023-07-28T09:24:43;3.90;;;3.70;;
14015;SDS011;7083;48.854;9.158;2023-07-28T09:27:20;5.77;;;5.27;;
14015;SDS011;7083;48.854;9.158;2023-07-28T09:29:48;6.33;;;5.50;;
14015;SDS011;7083;48.854;9.158;2023-07-28T09:32:15;6.10;;;4.93;;
14015;SDS011;7083;48.854;9.158;2023-07-28T09:34:43;4.60;;;4.20;;
14015;SDS011;7083;48.854;9.158;2023-07-28T09:37:09;6.97;;;4.10;;
14015;SDS011;7083;48.854;9.158;2023-07-28T09:39:37;3.90;;;3.60;;
14015;SDS011;7083;48.854;9.158;2023-07-28T09:42:06;4.37;;;3.37;;
14015;SDS011;7083;48.854;9.158;2023-07-28T09:44:36;3.97;;;2.43;;
14015;SDS011;7083;48.854;9.158;2023-07-28T09:47:03;3.13;;;2.83;;
14015;SDS011;7083;48.854;9.158;2023-07-28T09:49:34;3.30;;;3.10;;
14015;SDS011;7083;48.854;9.158;2023-07-28T09:52:03;5.23;;;3.27;;
14015;SDS011;7083;48.854;9.158;2023-07-28T09:54:33;3.50;;;3.17;;
14015;SDS011;7083;48.854;9.158;2023-07-28T09:57:04;3.50;;;3.30;;
14015;SDS011;7083;48.854;9.158;2023-07-28T09:59:37;5.10;;;4.03;;
14015;SDS011;7083;48.854;9.158;2023-07-28T10:02:06;4.17;;;3.87;;
14015;SDS011;7083;48.854;9.158;2023-07-28T10:04:34;4.90;;;4.03;;
14015;SDS011;7083;48.854;9.158;2023-07-28T10:07:03;6.03;;;3.20;;
14015;SDS011;7083;48.854;9.158;2023-07-28T10:09:30;4.87;;;3.63;;
14015;SDS011;7083;48.854;9.158;2023-07-28T10:11:59;2.80;;;2.70;;
14015;SDS011;7083;48.854;9.158;2023-07-28T10:14:26;3.87;;;3.57;;
14015;SDS011;7083;48.854;9.158;2023-07-28T10:16:57;3.90;;;3.23;;
14015;SDS011;7083;48.854;9.158;2023-07-28T10:19:24;3.10;;;2.90;;
14015;SDS011;7083;48.854;9.158;2023-07-28T10:21:58;3.10;;;2.87;;
14015;SDS011;7083;48.854;9.158;2023-07-28T10:27:27;3.20;;;2.90;;
14015;SDS011;7083;48.854;9.158;2023-07-28T10:29:56;2.90;;;2.80;;
14015;SDS011;7083;48.854;9.158;2023-07-28T10:32:26;2.87;;;2.63;;
14015;SDS011;7083;48.854;9.158;2023-07-28T10:35:01;4.07;;;3.10;;
14015;SDS011;7083;48.854;9.158;2023-07-28T10:37:32;3.60;;;3.33;;
14015;SDS011;7083;48.854;9.158;2023-07-28T10:40:21;3.33;;;3.03;;
14015;SDS011;7083;48.854;9.158;2023-07-28T10:42:49;3.70;;;3.40;;
14015;SDS011;7083;48.854;9.158;2023-07-28T10:45:15;3.40;;;3.17;;
14015;SDS011;7083;48.854;9.158;2023-07-28T10:47:44;2.87;;;2.67;;
14015;SDS011;7083;48.854;9.158;2023-07-28T10:50:12;3.17;;;2.57;;
14015;SDS011;7083;48.854;9.158;2023-07-28T10:52:39;3.30;;;3.10;;
14015;SDS011;7083;48.854;9.158;2023-07-28T10:55:11;3.10;;;2.90;;
14015;SDS011;7083;48.854;9.158;2023-07-28T10:57:40;3.37;;;3.07;;
14015;SDS011;7083;48.854;9.158;2023-07-28T11:00:07;3.87;;;3.03;;
14015;SDS011;7083;48.854;9.158;2023-07-28T11:02:36;3.77;;;3.37;;
14015;SDS011;7083;48.854;9.158;2023-07-28T11:05:09;2.80;;;2.60;;
14015;SDS011;7083;48.854;9.158;2023-07-28T11:07:38;3.27;;;2.77;;
14015;SDS011;7083;48.854;9.158;2023-07-28T11:10:07;3.40;;;3.10;;
14015;SDS011;7083;48.854;9.158;2023-07-28T11:12:34;3.07;;;2.97;;
14015;SDS011;7083;48.854;9.158;2023-07-28T11:15:00;3.47;;;3.20;;
14015;SDS011;7083;48.854;9.158;2023-07-28T11:17:28;3.10;;;2.87;;
14015;SDS011;7083;48.854;9.158;2023-07-28T11:19:55;3.43;;;2.53;;
14015;SDS011;7083;48.854;9.158;2023-07-28T11:22:23;1.10;;;1.10;;
14015;SDS011;7083;48.854;9.158;2023-07-28T11:24:50;1.30;;;1.30;;
14015;SDS011;7083;48.854;9.158;2023-07-28T11:27:17;1.30;;;1.20;;
14015;SDS011;7083;48.854;9.158;2023-07-28T11:29:44;1.50;;;1.40;;
14015;SDS011;7083;48.854;9.158;2023-07-28T11:32:11;1.30;;;1.27;;
14015;SDS011;7083;48.854;9.158;2023-07-28T11:34:41;1.27;;;1.27;;
14015;SDS011;7083;48.854;9.158;2023-07-28T11:37:09;2.20;;;1.40;;
14015;SDS011;7083;48.854;9.158;2023-07-28T11:39:38;1.33;;;1.33;;
14015;SDS011;7083;48.854;9.158;2023-07-28T11:42:06;2.43;;;1.47;;
14015;SDS011;7083;48.854;9.158;2023-07-28T11:44:33;1.30;;;1.20;;
14015;SDS011;7083;48.854;9.158;2023-07-28T11:47:00;1.40;;;1.40;;
14015;SDS011;7083;48.854;9.158;2023-07-28T11:49:31;1.20;;;1.20;;
14015;SDS011;7083;48.854;9.158;2023-07-28T11:51:57;1.07;;;1.07;;
14015;SDS011;7083;48.854;9.158;2023-07-28T11:54:25;1.17;;;1.17;;
14015;SDS011;7083;48.854;9.158;2023-07-28T11:56:56;1.20;;;1.20;;
14015;SDS011;7083;48.854;9.158;2023-07-28T11:59:23;1.20;;;1.20;;
14015;SDS011;7083;48.854;9.158;2023-07-28T12:01:53;1.40;;;1.40;;
14015;SDS011;7083;48.854;9.158;2023-07-28T12:04:21;1.73;;;1.70;;
14015;SDS011;7083;48.854;9.158;2023-07-28T12:07:01;1.33;;;1.23;;
14015;SDS011;7083;48.854;9.158;2023-07-28T12:09:31;1.30;;;1.30;;
14015;SDS011;7083;48.854;9.158;2023-07-28T12:11:59;1.80;;;1.70;;
14015;SDS011;7083;48.854;9.158;2023-07-28T12:14:32;2.07;;;1.97;;
14015;SDS011;7083;48.854;9.158;2023-07-28T12:17:00;1.40;;;1.30;;
14015;SDS011;7083;48.854;9.158;2023-07-28T12:19:27;1.63;;;1.63;;
14015;SDS011;7083;48.854;9.158;2023-07-28T12:21:54;1.80;;;1.70;;
14015;SDS011;7083;48.854;9.158;2023-07-28T12:24:21;1.87;;;1.77;;
14015;SDS011;7083;48.854;9.158;2023-07-28T12:26:48;1.60;;;1.60;;
14015;SDS011;7083;48.854;9.158;2023-07-28T12:29:18;3.43;;;1.63;;
14015;SDS011;7083;48.854;9.158;2023-07-28T12:31:45;2.50;;;2.30;;
14015;SDS011;7083;48.854;9.158;2023-07-28T12:34:11;2.27;;;2.17;;
14015;SDS011;7083;48.854;9.158;2023-07-28T12:36:38;2.20;;;2.00;;
14015;SDS011;7083;48.854;9.158;2023-07-28T12:39:05;2.03;;;1.93;;
14015;SDS011;7083;48.854;9.158;2023-07-28T12:41:32;1.97;;;1.87;;
14015;SDS011;7083;48.854;9.158;2023-07-28T12:43:59;2.37;;;2.23;;
14015;SDS011;7083;48.854;9.158;2023-07-28T12:46:27;2.10;;;2.00;;
14015;SDS011;7083;48.854;9.158;2023-07-28T12:48:54;1.90;;;1.90;;
14015;SDS011;7083;48.854;9.158;2023-07-28T12:51:21;2.00;;;1.90;;
14015;SDS011;7083;48.854;9.158;2023-07-28T12:53:47;2.00;;;2.00;;
14015;SDS011;7083;48.854;9.158;2023-07-28T12:56:14;2.40;;;2.27;;
14015;SDS011;7083;48.854;9.158;2023-07-28T12:58:41;1.90;;;1.80;;
14015;SDS011;7083;48.854;9.158;2023-07-28T13:01:07;2.20;;;1.93;;
14015;SDS011;7083;48.854;9.158;2023-07-28T13:03:38;2.67;;;2.50;;
14015;SDS011;7083;48.854;9.158;2023-07-28T13:06:04;2.40;;;2.30;;
14015;SDS011;7083;48.854;9.158;2023-07-28T13:08:31;2.40;;;2.23;;
14015;SDS011;7083;48.854;9.158;2023-07-28T13:10:58;2.30;;;2.20;;
14015;SDS011;7083;48.854;9.158;2023-07-28T13:13:24;3.63;;;2.30;;
14015;SDS011;7083;48.854;9.158;2023-07-28T13:15:51;3.23;;;3.03;;
14015;SDS011;7083;48.854;9.158;2023-07-28T13:18:18;6.37;;;2.60;;
14015;SDS011;7083;48.854;9.158;2023-07-28T13:20:46;3.20;;;3.00;;
14015;SDS011;7083;48.854;9.158;2023-07-28T13:23:13;3.00;;;2.80;;
14015;SDS011;7083;48.854;9.158;2023-07-28T13:25:39;2.93;;;2.40;;
14015;SDS011;7083;48.854;9.158;2023-07-28T13:28:06;2.63;;;2.53;;
14015;SDS011;7083;48.854;9.158;2023-07-28T13:30:33;2.73;;;2.63;;
14015;SDS011;7083;48.854;9.158;2023-07-28T13:33:00;2.37;;;2.27;;
14015;SDS011;7083;48.854;9.158;2023-07-28T13:35:28;2.87;;;2.77;;
14015;SDS011;7083;48.854;9.158;2023-07-28T13:37:56;3.93;;;3.20;;
14015;SDS011;7083;48.854;9.158;2023-07-28T13:40:22;4.00;;;3.13;;
14015;SDS011;7083;48.854;9.158;2023-07-28T13:42:49;3.23;;;3.03;;
14015;SDS011;7083;48.854;9.158;2023-07-28T13:45:16;3.00;;;2.80;;
14015;SDS011;7083;48.854;9.158;2023-07-28T13:47:42;3.10;;;2.80;;
14015;SDS011;7083;48.854;9.158;2023-07-28T13:50:09;3.23;;;2.93;;
14015;SDS011;7083;48.854;9.158;2023-07-28T13:52:36;3.13;;;2.90;;
14015;SDS011;7083;48.854;9.158;2023-07-28T13:55:04;3.10;;;2.90;;
14015;SDS011;7083;48.854;9.158;2023-07-28T13:57:31;3.30;;;3.10;;
14015;SDS011;7083;48.854;9.158;2023-07-28T13:59:58;4.87;;;3.63;;
14015;SDS011;7083;48.854;9.158;2023-07-28T14:02:25;3.20;;;3.00;;
14015;SDS011;7083;48.854;9.158;2023-07-28T14:04:52;3.07;;;2.97;;
14015;SDS011;7083;48.854;9.158;2023-07-28T14:07:18;4.50;;;4.07;;
14015;SDS011;7083;48.854;9.158;2023-07-28T14:09:45;6.77;;;3.70;;
14015;SDS011;7083;48.854;9.158;2023-07-28T14:12:13;4.20;;;3.70;;
14015;SDS011;7083;48.854;9.158;2023-07-28T14:14:40;3.57;;;3.33;;
14015;SDS011;7083;48.854;9.158;2023-07-28T14:17:06;5.07;;;4.27;;
14015;SDS011;7083;48.854;9.158;2023-07-28T14:19:33;4.73;;;4.33;;
14015;SDS011;7083;48.854;9.158;2023-07-28T14:22:00;4.13;;;3.83;;
14015;SDS011;7083;48.854;9.158;2023-07-28T14:24:27;5.50;;;4.03;;
14015;SDS011;7083;48.854;9.158;2023-07-28T14:26:53;4.33;;;3.97;;
14015;SDS011;7083;48.854;9.158;2023-07-28T14:29:21;4.27;;;3.97;;
14015;SDS011;7083;48.854;9.158;2023-07-28T14:31:48;5.43;;;4.90;;
14015;SDS011;7083;48.854;9.158;2023-07-28T14:34:15;4.67;;;4.27;;
14015;SDS011;7083;48.854;9.158;2023-07-28T14:36:42;5.37;;;4.83;;
14015;SDS011;7083;48.854;9.158;2023-07-28T14:39:08;5.17;;;4.87;;
14015;SDS011;7083;48.854;9.158;2023-07-28T14:41:36;4.53;;;4.23;;
14015;SDS011;7083;48.854;9.158;2023-07-28T14:44:03;4.90;;;4.60;;
14015;SDS011;7083;48.854;9.158;2023-07-28T14:46:31;4.40;;;4.10;;
14015;SDS011;7083;48.854;9.158;2023-07-28T14:48:58;4.70;;;4.40;;
14015;SDS011;7083;48.854;9.158;2023-07-28T14:51:24;4.90;;;4.60;;
14015;SDS011;7083;48.854;9.158;2023-07-28T14:53:51;4.50;;;4.20;;
14015;SDS011;7083;48.854;9.158;2023-07-28T14:56:20;4.37;;;4.07;;
14015;SDS011;7083;48.854;9.158;2023-07-28T14:58:49;4.77;;;4.47;;
14015;SDS011;7083;48.854;9.158;2023-07-28T15:01:18;4.40;;;4.00;;
14015;SDS011;7083;48.854;9.158;2023-07-28T15:03:45;4.47;;;4.17;;
14015;SDS011;7083;48.854;9.158;2023-07-28T15:06:12;4.00;;;3.70;;